Time;durP1;ratioP1;P1;durP2;ratioP2;P2;SDS_P1;SDS_P2;PMS_P1;PMS_P2;Temp;Humidity;BMP_temperature;BMP_pressure;BME280_temperature;BME280_humidity;BME280_pressure;Samples;Min_cycle;Max_cycle;Signal;HPM_P1;HPM_P2
2021/04/19 00:00:39;;;;;;;20.05;12.40;;;9.70;98.80;;;;;;5032534;28;20041;-69
2021/04/19 00:03:05;;;;;;;22.05;12.98;;;9.70;98.60;;;;;;5031551;28;20029;-69
2021/04/19 00:05:31;;;;;;;23.75;12.27;;;9.70;98.80;;;;;;5020152;28;20038;-71
2021/04/19 00:07:56;;;;;;;21.15;13.25;;;9.70;98.60;;;;;;5012610;28;20133;-70
2021/04/19 00:10:24;;;;;;;22.77;12.77;;;9.70;98.60;;;;;;5014062;28;20399;-70
2021/04/19 00:12:50;;;;;;;22.15;13.00;;;9.70;98.60;;;;;;5022511;28;20042;-70
2021/04/19 00:15:19;;;;;;;19.15;11.48;;;9.70;98.60;;;;;;5022631;28;20069;-70
2021/04/19 00:17:44;;;;;;;20.85;13.85;;;9.70;98.70;;;;;;5021685;28;20108;-70
2021/04/19 00:20:10;;;;;;;22.58;13.55;;;9.70;98.60;;;;;;5002774;28;20133;-70
2021/04/19 00:22:36;;;;;;;20.42;12.57;;;9.70;98.60;;;;;;5003677;28;20034;-70
2021/04/19 00:25:04;;;;;;;25.83;14.63;;;9.70;98.70;;;;;;5013916;28;20041;-70
2021/04/19 00:27:29;;;;;;;24.33;13.80;;;9.70;98.70;;;;;;5018136;28;20030;-70
2021/04/19 00:29:55;;;;;;;20.65;12.63;;;9.70;98.70;;;;;;5030483;28;20018;-70
2021/04/19 00:32:20;;;;;;;20.15;11.90;;;9.70;98.70;;;;;;5016889;28;20087;-70
2021/04/19 00:34:46;;;;;;;23.88;13.35;;;9.70;98.70;;;;;;5016490;28;20422;-70
2021/04/19 00:37:11;;;;;;;26.48;13.27;;;9.70;98.80;;;;;;4999816;28;20025;-70
2021/04/19 00:39:37;;;;;;;21.27;13.05;;;9.60;98.70;;;;;;5033809;28;20378;-70
2021/04/19 00:42:03;;;;;;;21.88;12.15;;;9.70;98.70;;;;;;5013838;28;20089;-70
2021/04/19 00:44:29;;;;;;;23.48;13.45;;;9.70;98.70;;;;;;5033747;28;20505;-70
2021/04/19 00:46:55;;;;;;;19.90;12.57;;;9.70;98.70;;;;;;5030094;28;20026;-70
2021/04/19 00:49:23;;;;;;;20.98;12.93;;;9.70;98.80;;;;;;5033416;28;20358;-70
2021/04/19 00:51:49;;;;;;;23.08;13.95;;;9.70;98.60;;;;;;5016025;28;20387;-69
2021/04/19 00:54:15;;;;;;;23.80;13.73;;;9.70;98.60;;;;;;5033371;28;20036;-69
2021/04/19 00:56:41;;;;;;;20.75;13.50;;;9.70;98.60;;;;;;5017690;28;20121;-70
2021/04/19 00:59:07;;;;;;;22.98;14.07;;;9.70;98.80;;;;;;5033383;28;20032;-70
2021/04/19 01:01:33;;;;;;;23.40;13.93;;;9.70;98.60;;;;;;5019054;28;20050;-70
2021/04/19 01:03:59;;;;;;;21.55;13.60;;;9.60;98.70;;;;;;5028200;28;20022;-70
2021/04/19 01:06:25;;;;;;;24.55;14.57;;;9.60;98.70;;;;;;4996332;28;20034;-70
2021/04/19 01:08:51;;;;;;;22.27;13.95;;;9.60;98.70;;;;;;5026644;28;20724;-69
2021/04/19 01:11:17;;;;;;;19.02;12.73;;;9.60;98.70;;;;;;5033051;28;20025;-69
2021/04/19 01:13:42;;;;;;;20.73;13.73;;;9.60;98.70;;;;;;5029360;28;20021;-69
2021/04/19 01:16:08;;;;;;;23.20;13.75;;;9.50;98.70;;;;;;5013136;28;20030;-70
2021/04/19 01:18:33;;;;;;;23.20;13.98;;;9.60;98.70;;;;;;5020751;28;20034;-70
2021/04/19 01:20:59;;;;;;;22.88;14.65;;;9.60;98.70;;;;;;5013528;28;20463;-69
2021/04/19 01:23:25;;;;;;;21.17;14.02;;;9.60;98.70;;;;;;5025128;28;20072;-69
2021/04/19 01:25:50;;;;;;;21.10;12.57;;;9.50;98.70;;;;;;5005393;28;20046;-69
2021/04/19 01:28:19;;;;;;;21.67;14.90;;;9.50;98.70;;;;;;5011467;28;20462;-69
2021/04/19 01:30:47;;;;;;;23.48;14.38;;;9.50;98.70;;;;;;5010513;28;20120;-69
2021/04/19 01:33:13;;;;;;;24.13;14.38;;;9.40;98.70;;;;;;5023335;28;20030;-69
2021/04/19 01:35:39;;;;;;;23.45;14.63;;;9.40;98.70;;;;;;5032785;28;20032;-69
2021/04/19 01:38:06;;;;;;;22.40;14.77;;;9.40;98.60;;;;;;5025302;28;20109;-69
2021/04/19 01:40:32;;;;;;;25.45;14.25;;;9.30;98.50;;;;;;5031025;28;20035;-69
2021/04/19 01:42:58;;;;;;;23.55;14.82;;;9.30;98.50;;;;;;5021395;28;20022;-69
2021/04/19 01:45:24;;;;;;;27.27;14.77;;;9.20;98.50;;;;;;5031949;28;20504;-69
2021/04/19 01:47:49;;;;;;;23.67;15.48;;;9.10;98.50;;;;;;5021597;28;20482;-69
2021/04/19 01:50:20;;;;;;;22.85;15.40;;;9.00;98.60;;;;;;5032184;28;20029;-69
2021/04/19 01:52:45;;;;;;;24.15;14.63;;;8.90;98.60;;;;;;5014212;28;20022;-69
2021/04/19 01:55:14;;;;;;;27.05;16.00;;;8.90;98.70;;;;;;5018239;28;20026;-69
2021/04/19 01:57:43;;;;;;;24.38;15.10;;;8.80;98.80;;;;;;5016926;28;20040;-69
2021/04/19 02:00:19;;;;;;;23.45;14.43;;;8.70;99.00;;;;;;5107143;27;20595;-69
2021/04/19 02:03:08;;;;;;;27.35;15.70;;;8.60;99.10;;;;;;5092909;28;20142;-70
2021/04/19 02:05:47;;;;;;;23.55;15.93;;;8.40;99.10;;;;;;5077750;28;20033;-70
2021/04/19 02:08:27;;;;;;;28.00;16.38;;;8.40;99.20;;;;;;5087328;28;20032;-70
2021/04/19 02:11:10;;;;;;;24.48;14.73;;;8.30;99.30;;;;;;5086070;28;20503;-70
2021/04/19 02:13:39;;;;;;;28.33;15.82;;;8.20;99.30;;;;;;5086821;28;20054;-70
2021/04/19 02:16:19;;;;;;;30.65;17.10;;;8.20;99.40;;;;;;5087429;28;20020;-70
2021/04/19 02:18:52;;;;;;;28.80;16.52;;;8.10;99.50;;;;;;5068282;28;20041;-70
2021/04/19 02:21:29;;;;;;;28.48;16.90;;;8.00;99.50;;;;;;5100135;28;20027;-70
2021/04/19 02:24:02;;;;;;;24.67;16.02;;;8.10;99.50;;;;;;5088619;28;20028;-69
2021/04/19 02:26:35;;;;;;;28.40;15.48;;;8.00;99.50;;;;;;5086050;28;20036;-69
2021/04/19 02:29:16;;;;;;;27.27;16.15;;;8.00;99.50;;;;;;5087491;28;20074;-69
2021/04/19 02:31:51;;;;;;;24.75;14.85;;;8.00;99.50;;;;;;5087722;28;20103;-69
2021/04/19 02:34:19;;;;;;;25.25;15.60;;;8.00;99.50;;;;;;5086399;28;20039;-70
2021/04/19 02:36:48;;;;;;;26.38;16.67;;;8.10;99.50;;;;;;5067950;28;20078;-70
2021/04/19 02:39:15;;;;;;;24.90;16.30;;;8.00;99.50;;;;;;5067509;28;20401;-70
2021/04/19 02:41:42;;;;;;;23.10;15.57;;;8.00;99.50;;;;;;5107370;28;20119;-69
2021/04/19 02:44:09;;;;;;;23.77;15.27;;;8.00;99.50;;;;;;5103033;28;20111;-69
2021/04/19 02:46:36;;;;;;;22.98;14.90;;;8.10;99.60;;;;;;5101202;28;20039;-69
2021/04/19 02:49:02;;;;;;;29.25;15.65;;;8.10;99.60;;;;;;5103735;28;20389;-69
2021/04/19 02:51:30;;;;;;;24.30;16.08;;;8.10;99.50;;;;;;5085792;28;20074;-69
2021/04/19 02:53:56;;;;;;;22.23;14.98;;;8.10;99.50;;;;;;5087851;28;20024;-69
2021/04/19 02:56:22;;;;;;;25.00;15.15;;;8.10;99.50;;;;;;5100715;28;20445;-69
2021/04/19 02:58:58;;;;;;;21.98;14.00;;;8.10;99.50;;;;;;5087145;28;20066;-69
2021/04/19 03:01:33;;;;;;;24.17;15.23;;;8.10;99.50;;;;;;5084477;28;20034;-69
2021/04/19 03:04:01;;;;;;;;;;;8.10;99.50;;;;;;5088060;28;20089;-69
2021/04/19 03:06:28;;;;;;;21.73;14.55;;;8.20;99.20;;;;;;5084812;28;19995;-69
2021/04/19 03:08:57;;;;;;;22.58;15.48;;;8.20;99.30;;;;;;5087074;28;20115;-69
2021/04/19 03:11:45;;;;;;;24.38;15.68;;;8.10;99.30;;;;;;5072316;28;20039;-69
2021/04/19 03:14:13;;;;;;;24.55;15.18;;;8.10;99.30;;;;;;5073037;28;20032;-70
2021/04/19 03:16:45;;;;;;;25.85;15.40;;;8.10;99.40;;;;;;5068760;28;20028;-69
2021/04/19 03:19:12;;;;;;;26.77;15.85;;;8.10;99.40;;;;;;5053696;28;20126;-69
2021/04/19 03:21:40;;;;;;;25.10;14.98;;;8.20;99.40;;;;;;5077990;28;20032;-69
2021/04/19 03:24:08;;;;;;;27.27;16.30;;;8.20;99.50;;;;;;5073970;28;20035;-69
2021/04/19 03:26:34;;;;;;;23.48;14.63;;;8.20;99.50;;;;;;5072968;28;20024;-69
2021/04/19 03:29:02;;;;;;;21.92;14.32;;;8.20;99.50;;;;;;5073657;28;20102;-69
2021/04/19 03:31:46;;;;;;;25.85;16.58;;;8.30;99.50;;;;;;5078135;28;20025;-69
2021/04/19 03:34:24;;;;;;;23.08;14.77;;;8.30;99.40;;;;;;5071671;28;20032;-69
2021/04/19 03:37:19;;;;;;;24.23;15.75;;;8.20;99.30;;;;;;5053795;28;20112;-69
2021/04/19 03:39:52;;;;;;;23.08;14.85;;;8.20;99.30;;;;;;5064972;28;20044;-69
2021/04/19 03:42:20;;;;;;;22.70;14.68;;;8.20;99.30;;;;;;5092258;28;20551;-69
2021/04/19 03:44:47;;;;;;;25.10;15.70;;;8.20;99.20;;;;;;5081127;28;20085;-69
2021/04/19 03:47:14;;;;;;;23.13;15.10;;;8.20;99.20;;;;;;5092291;28;20102;-68
2021/04/19 03:49:43;;;;;;;21.40;14.73;;;8.20;99.20;;;;;;5059593;28;20028;-68
2021/04/19 03:52:15;;;;;;;25.08;15.95;;;8.20;99.20;;;;;;5093287;28;20051;-69
2021/04/19 03:54:46;;;;;;;22.10;13.90;;;8.20;99.20;;;;;;5078811;28;20025;-68
2021/04/19 03:57:16;;;;;;;21.23;14.45;;;8.20;99.20;;;;;;5073555;28;20024;-69
2021/04/19 03:59:44;;;;;;;19.95;14.20;;;8.10;99.20;;;;;;5073773;28;20048;-69
2021/04/19 04:02:13;;;;;;;19.50;13.45;;;8.10;99.30;;;;;;5093421;28;20039;-69
2021/04/19 04:04:41;;;;;;;18.15;12.70;;;8.00;99.30;;;;;;5078656;28;20402;-69
2021/04/19 04:07:08;;;;;;;22.05;13.52;;;8.00;99.30;;;;;;5084033;28;20024;-69
2021/04/19 04:09:35;;;;;;;19.40;13.27;;;8.00;99.20;;;;;;5069666;28;20564;-69
2021/04/19 04:12:01;;;;;;;18.38;12.90;;;8.00;99.20;;;;;;5073020;28;20028;-70
2021/04/19 04:14:28;;;;;;;18.67;12.63;;;8.00;99.20;;;;;;5071634;28;20032;-69
2021/04/19 04:16:54;;;;;;;19.27;12.73;;;8.00;99.30;;;;;;5072881;28;20029;-70
2021/04/19 04:19:19;;;;;;;19.38;12.50;;;8.00;99.30;;;;;;5070022;28;20033;-69
2021/04/19 04:21:45;;;;;;;19.10;12.00;;;8.00;99.30;;;;;;5071969;28;20013;-70
2021/04/19 04:24:11;;;;;;;18.42;13.13;;;8.00;99.30;;;;;;5071478;28;20029;-70
2021/04/19 04:26:36;;;;;;;20.33;12.57;;;8.00;99.30;;;;;;5088786;28;20073;-70
2021/04/19 04:29:02;;;;;;;18.75;12.05;;;7.90;99.40;;;;;;5072286;28;20237;-70
2021/04/19 04:31:27;;;;;;;17.95;13.02;;;8.00;99.40;;;;;;5070572;28;20047;-70
2021/04/19 04:33:53;;;;;;;19.27;13.20;;;8.00;99.40;;;;;;5052626;28;20032;-70
2021/04/19 04:36:19;;;;;;;21.35;13.05;;;8.00;99.40;;;;;;5069155;28;20044;-69
2021/04/19 04:38:45;;;;;;;19.83;12.70;;;8.10;99.40;;;;;;5086717;28;20032;-69
2021/04/19 04:41:10;;;;;;;18.23;12.95;;;8.10;99.40;;;;;;5089151;28;20496;-69
2021/04/19 04:43:39;;;;;;;19.25;12.85;;;8.10;99.40;;;;;;5073974;28;20051;-69
2021/04/19 04:46:11;;;;;;;21.25;12.90;;;8.10;99.40;;;;;;5071090;28;20086;-69
2021/04/19 04:49:03;;;;;;;18.15;12.45;;;8.10;99.40;;;;;;5070307;28;20389;-69
2021/04/19 04:51:31;;;;;;;18.50;13.27;;;8.10;99.40;;;;;;5070328;28;20020;-69
2021/04/19 04:54:09;;;;;;;17.73;12.93;;;8.20;99.40;;;;;;5068082;28;20568;-69
2021/04/19 04:56:38;;;;;;;20.10;13.30;;;8.20;99.40;;;;;;5088000;28;20027;-68
2021/04/19 04:59:04;;;;;;;19.35;13.75;;;8.20;99.40;;;;;;5071760;28;20386;-70
2021/04/19 05:01:32;;;;;;;19.10;13.02;;;8.20;99.40;;;;;;5088377;28;20028;-70
2021/04/19 05:03:59;;;;;;;19.50;11.43;;;8.30;99.40;;;;;;5079013;28;20258;-68
2021/04/19 05:06:26;;;;;;;20.30;13.73;;;8.30;99.40;;;;;;5074358;28;20109;-66
2021/04/19 05:08:52;;;;;;;20.38;12.82;;;8.40;99.40;;;;;;5075222;28;20440;-67
2021/04/19 05:11:18;;;;;;;21.55;14.07;;;8.50;99.40;;;;;;5069630;28;20028;-67
2021/04/19 05:13:44;;;;;;;20.00;12.93;;;8.50;99.40;;;;;;5071116;28;20036;-67
2021/04/19 05:16:09;;;;;;;22.08;14.45;;;8.50;99.40;;;;;;5085720;28;20042;-67
2021/04/19 05:18:35;;;;;;;21.08;14.63;;;8.60;99.40;;;;;;5080535;28;20320;-71
2021/04/19 05:21:00;;;;;;;20.30;13.65;;;8.60;99.30;;;;;;5070113;28;20025;-68
2021/04/19 05:23:27;;;;;;;20.25;14.65;;;8.60;99.30;;;;;;5070402;28;20051;-69
2021/04/19 05:25:54;;;;;;;18.67;13.57;;;8.70;99.30;;;;;;5072258;28;20357;-69
2021/04/19 05:28:19;;;;;;;20.42;14.77;;;8.80;99.40;;;;;;5061804;28;20028;-67
2021/04/19 05:30:47;;;;;;;20.92;14.63;;;8.80;99.30;;;;;;5077567;28;20054;-69
2021/04/19 05:33:15;;;;;;;18.83;14.05;;;8.80;99.20;;;;;;5080797;28;20060;-68
2021/04/19 05:35:40;;;;;;;20.20;13.95;;;8.90;99.20;;;;;;5069876;28;20032;-69
2021/04/19 05:38:08;;;;;;;19.90;13.50;;;8.90;99.10;;;;;;5069173;28;20036;-69
2021/04/19 05:40:35;;;;;;;20.67;14.43;;;8.90;99.20;;;;;;5069801;28;20036;-68
2021/04/19 05:43:05;;;;;;;20.13;14.13;;;9.00;99.20;;;;;;5069510;28;20069;-69
2021/04/19 05:45:32;;;;;;;18.85;13.52;;;9.00;99.20;;;;;;5077656;28;20059;-69
2021/04/19 05:47:59;;;;;;;24.70;14.85;;;9.20;99.10;;;;;;5069691;28;20060;-69
2021/04/19 05:50:26;;;;;;;22.23;14.23;;;9.20;99.00;;;;;;5069450;28;20028;-69
2021/04/19 05:52:54;;;;;;;20.17;14.27;;;9.20;99.00;;;;;;5057287;28;20021;-69
2021/04/19 05:55:23;;;;;;;21.15;14.23;;;9.20;98.90;;;;;;5059182;28;20067;-69
2021/04/19 05:58:26;;;;;;;20.58;13.35;;;9.20;98.90;;;;;;5076681;28;20020;-70
2021/04/19 06:01:06;;;;;;;24.42;14.77;;;9.20;98.70;;;;;;5084902;28;20028;-69
2021/04/19 06:03:53;;;;;;;24.52;14.18;;;9.20;98.70;;;;;;5069788;28;20503;-69
2021/04/19 06:06:35;;;;;;;23.00;15.23;;;9.30;98.70;;;;;;5068895;28;20029;-68
2021/04/19 06:09:16;;;;;;;21.52;14.23;;;9.30;98.70;;;;;;5070088;28;20497;-69
2021/04/19 06:11:49;;;;;;;19.98;14.05;;;9.30;98.70;;;;;;5081974;28;20036;-69
2021/04/19 06:14:17;;;;;;;24.98;14.93;;;9.30;98.80;;;;;;5069611;28;20025;-69
2021/04/19 06:16:44;;;;;;;21.00;14.65;;;9.40;98.70;;;;;;5058368;28;20362;-68
2021/04/19 06:19:13;;;;;;;23.48;15.05;;;9.40;98.80;;;;;;5069854;28;20031;-69
2021/04/19 06:21:39;;;;;;;24.00;15.73;;;9.50;98.80;;;;;;5059364;28;20385;-69
2021/04/19 06:24:09;;;;;;;25.02;15.60;;;9.50;98.70;;;;;;5072684;28;20036;-69
2021/04/19 06:26:36;;;;;;;24.23;15.50;;;9.50;98.80;;;;;;5074654;28;20372;-70
2021/04/19 06:29:03;;;;;;;24.00;14.18;;;9.60;98.60;;;;;;5088964;28;20461;-69
2021/04/19 06:31:28;;;;;;;21.38;14.88;;;9.60;98.50;;;;;;5068888;28;20032;-69
2021/04/19 06:34:08;;;;;;;23.25;15.45;;;9.60;98.50;;;;;;5070801;28;20021;-69
2021/04/19 06:36:39;;;;;;;27.40;15.73;;;9.70;98.40;;;;;;5067959;28;20031;-69
2021/04/19 06:39:06;;;;;;;22.20;15.23;;;9.80;98.30;;;;;;5070760;28;20041;-69
2021/04/19 06:41:32;;;;;;;22.83;14.75;;;9.90;98.40;;;;;;5080981;28;20029;-68
2021/04/19 06:43:59;;;;;;;25.75;16.30;;;9.90;98.30;;;;;;5050970;28;20083;-69
2021/04/19 06:46:39;;;;;;;25.38;15.95;;;10.00;98.20;;;;;;5070733;28;20373;-69
2021/04/19 06:49:06;;;;;;;24.73;15.68;;;10.10;98.10;;;;;;5073448;28;20041;-69
2021/04/19 06:51:33;;;;;;;25.15;15.02;;;10.10;98.10;;;;;;5072474;28;20035;-72
2021/04/19 06:53:59;;;;;;;25.45;16.15;;;10.20;98.00;;;;;;5073693;28;20028;-71
2021/04/19 06:56:38;;;;;;;23.13;15.57;;;10.20;97.90;;;;;;5071817;28;20077;-68
2021/04/19 06:59:05;;;;;;;24.05;15.02;;;10.40;97.90;;;;;;5073385;28;20048;-68
2021/04/19 07:01:31;;;;;;;25.63;16.10;;;10.50;98.00;;;;;;5056761;28;20082;-68
2021/04/19 07:04:05;;;;;;;27.13;17.33;;;10.60;98.00;;;;;;5064876;28;20104;-68
2021/04/19 07:06:36;;;;;;;25.40;16.33;;;10.70;98.00;;;;;;5073762;28;20510;-68
2021/04/19 07:09:04;;;;;;;27.05;17.98;;;10.80;97.70;;;;;;5077352;28;20043;-68
2021/04/19 07:11:35;;;;;;;25.63;17.15;;;10.80;97.40;;;;;;5072668;28;20460;-68
2021/04/19 07:14:02;;;;;;;25.42;15.90;;;10.90;97.30;;;;;;5073735;28;20067;-68
2021/04/19 07:16:28;;;;;;;24.38;15.82;;;10.90;97.20;;;;;;5068081;28;20059;-68
2021/04/19 07:18:54;;;;;;;24.17;15.05;;;11.00;97.10;;;;;;5066183;28;20040;-68
2021/04/19 07:21:19;;;;;;;26.27;16.58;;;10.90;96.90;;;;;;5081376;28;20024;-68
2021/04/19 07:23:45;;;;;;;20.60;14.20;;;11.00;96.80;;;;;;5073655;28;20013;-68
2021/04/19 07:26:11;;;;;;;24.33;15.65;;;11.00;96.80;;;;;;5090255;28;20055;-68
2021/04/19 07:28:37;;;;;;;22.55;15.73;;;11.00;96.90;;;;;;5094388;28;20077;-68
2021/04/19 07:31:04;;;;;;;21.73;14.93;;;11.10;97.00;;;;;;5073126;28;20098;-67
2021/04/19 07:33:35;;;;;;;22.52;15.45;;;11.20;96.90;;;;;;5073858;28;20021;-68
2021/04/19 07:36:29;;;;;;;21.98;14.57;;;11.20;96.80;;;;;;5084007;28;20377;-68
2021/04/19 07:38:58;;;;;;;22.45;14.20;;;11.30;96.80;;;;;;5079513;28;20105;-68
2021/04/19 07:41:49;;;;;;;21.27;13.90;;;11.40;96.80;;;;;;5069291;28;20480;-68
2021/04/19 07:44:37;;;;;;;21.30;14.32;;;11.40;96.40;;;;;;5069515;28;20033;-68
2021/04/19 07:47:21;;;;;;;26.48;16.73;;;11.50;96.20;;;;;;5052879;28;20501;-69
2021/04/19 07:50:14;;;;;;;21.60;15.75;;;11.50;95.90;;;;;;5069513;28;20104;-68
2021/04/19 07:52:59;;;;;;;22.17;15.57;;;11.50;95.70;;;;;;5074913;28;20028;-67
2021/04/19 07:55:30;;;;;;;;;;;11.50;96.00;;;;;;5075093;28;20082;-68
2021/04/19 07:57:57;;;;;;;24.00;16.35;;;11.50;96.10;;;;;;5069239;28;19916;-68
2021/04/19 08:00:37;;;;;;;25.52;17.05;;;11.50;96.00;;;;;;5055657;28;20115;-67
2021/04/19 08:03:04;;;;;;;27.30;17.65;;;11.50;95.70;;;;;;5057664;28;20063;-68
2021/04/19 08:05:37;;;;;;;28.00;18.60;;;11.40;95.80;;;;;;5066138;28;20036;-68
2021/04/19 08:08:03;;;;;;;27.73;17.90;;;11.40;95.90;;;;;;5087434;28;20047;-68
2021/04/19 08:10:30;;;;;;;23.45;17.52;;;11.40;95.90;;;;;;5081953;28;20028;-68
2021/04/19 08:13:22;;;;;;;25.23;17.65;;;11.40;95.80;;;;;;5061904;28;20039;-68
2021/04/19 08:15:48;;;;;;;24.95;17.63;;;11.40;96.00;;;;;;5080943;28;20090;-68
2021/04/19 08:18:19;;;;;;;25.30;17.73;;;11.40;96.10;;;;;;5078658;28;20028;-68
2021/04/19 08:20:53;;;;;;;25.63;17.90;;;11.50;96.10;;;;;;5069060;28;20063;-68
2021/04/19 08:23:19;;;;;;;27.85;17.55;;;11.60;96.00;;;;;;5070449;28;20029;-68
2021/04/19 08:25:48;;;;;;;26.20;17.75;;;11.70;96.00;;;;;;5083727;28;20043;-68
2021/04/19 08:28:19;;;;;;;27.73;17.52;;;11.70;95.90;;;;;;5093120;28;20020;-68
2021/04/19 08:30:47;;;;;;;28.35;18.08;;;11.80;95.80;;;;;;5075862;28;20108;-68
2021/04/19 08:33:14;;;;;;;26.15;17.33;;;11.90;95.50;;;;;;5072607;28;20048;-68
2021/04/19 08:35:41;;;;;;;24.98;17.42;;;12.00;95.50;;;;;;5071329;28;20028;-69
2021/04/19 08:38:07;;;;;;;25.77;17.70;;;12.10;95.60;;;;;;5072314;28;20074;-69
2021/04/19 08:40:37;;;;;;;25.63;17.73;;;12.20;95.50;;;;;;5068449;28;20447;-69
2021/04/19 08:43:12;;;;;;;25.20;17.55;;;12.30;95.60;;;;;;5063159;28;20024;-69
2021/04/19 08:45:40;;;;;;;26.27;17.60;;;12.40;95.80;;;;;;5067231;28;20024;-69
2021/04/19 08:48:09;;;;;;;25.25;17.02;;;12.60;95.50;;;;;;5072507;28;20020;-69
2021/04/19 08:50:35;;;;;;;25.23;17.23;;;12.70;95.40;;;;;;5070749;28;20033;-68
2021/04/19 08:53:01;;;;;;;23.65;16.15;;;12.80;95.20;;;;;;5072556;28;20028;-69
2021/04/19 08:55:27;;;;;;;21.05;14.32;;;12.90;94.90;;;;;;5071157;28;20073;-69
2021/04/19 08:58:00;;;;;;;26.25;17.30;;;12.90;94.90;;;;;;5071712;28;20493;-70
2021/04/19 09:00:27;;;;;;;22.23;16.70;;;12.90;94.90;;;;;;5071314;28;20051;-66
2021/04/19 09:02:53;;;;;;;24.23;17.38;;;13.00;94.90;;;;;;5071510;28;20031;-66
2021/04/19 09:05:22;;;;;;;24.35;17.75;;;13.10;94.80;;;;;;5070268;28;20036;-67
2021/04/19 09:07:49;;;;;;;26.05;18.83;;;13.20;94.70;;;;;;5071219;28;20481;-67
2021/04/19 09:10:17;;;;;;;22.05;17.38;;;13.30;94.70;;;;;;5071601;28;20039;-68
2021/04/19 09:12:43;;;;;;;25.73;18.58;;;13.40;94.50;;;;;;5071441;28;20020;-68
2021/04/19 09:15:12;;;;;;;26.17;18.77;;;13.50;94.20;;;;;;5071763;28;20117;-67
2021/04/19 09:17:39;;;;;;;28.17;19.70;;;13.60;94.10;;;;;;5071413;28;20037;-66
2021/04/19 09:20:07;;;;;;;31.42;20.65;;;13.60;94.00;;;;;;5071504;28;20044;-67
2021/04/19 09:22:33;;;;;;;24.85;17.83;;;13.60;93.90;;;;;;5069768;28;20016;-67
2021/04/19 09:25:15;;;;;;;23.42;18.35;;;13.70;93.90;;;;;;5071748;28;20388;-67
2021/04/19 09:27:49;;;;;;;24.38;18.40;;;13.70;93.70;;;;;;5070611;28;20024;-67
2021/04/19 09:30:25;;;;;;;25.38;17.52;;;13.60;93.30;;;;;;5065420;28;20032;-67
2021/04/19 09:33:03;;;;;;;26.02;18.90;;;13.60;93.70;;;;;;5065148;28;20036;-66
2021/04/19 09:35:44;;;;;;;25.95;17.65;;;13.50;93.30;;;;;;5068129;28;20036;-66
2021/04/19 09:38:15;;;;;;;25.27;18.73;;;13.50;93.30;;;;;;5066520;28;20111;-66
2021/04/19 09:40:55;;;;;;;23.75;15.93;;;13.40;93.40;;;;;;5069818;28;20094;-67
2021/04/19 09:43:41;;;;;;;26.40;17.13;;;13.40;93.40;;;;;;5067498;28;20028;-67
2021/04/19 09:46:15;;;;;;;24.88;17.67;;;13.50;93.50;;;;;;5065203;28;20032;-67
2021/04/19 09:48:55;;;;;;;22.25;17.05;;;13.50;93.60;;;;;;5054413;28;20432;-67
2021/04/19 09:51:29;;;;;;;25.67;18.70;;;13.60;93.70;;;;;;5071519;28;20079;-67
2021/04/19 09:54:24;;;;;;;23.70;15.80;;;13.70;93.80;;;;;;5070507;28;20033;-67
2021/04/19 09:56:53;;;;;;;25.15;17.08;;;13.90;93.90;;;;;;5068263;28;20025;-67
2021/04/19 09:59:24;;;;;;;24.00;17.20;;;14.00;93.70;;;;;;5071054;28;20049;-67
2021/04/19 10:01:53;;;;;;;19.75;15.48;;;14.10;93.50;;;;;;5070985;28;20028;-67
2021/04/19 10:04:19;;;;;;;25.25;16.95;;;14.20;93.30;;;;;;5071430;28;20035;-66
2021/04/19 10:06:48;;;;;;;22.15;15.90;;;14.30;93.30;;;;;;5070947;28;20020;-67
2021/04/19 10:09:38;;;;;;;23.55;16.25;;;14.40;93.10;;;;;;5068979;28;20103;-67
2021/04/19 10:12:27;;;;;;;23.35;15.43;;;14.60;92.90;;;;;;5069513;28;20566;-67
2021/04/19 10:14:52;;;;;;;21.38;16.88;;;14.60;92.70;;;;;;5070973;28;20035;-67
2021/04/19 10:17:21;;;;;;;20.42;14.75;;;14.80;92.70;;;;;;5070451;28;20028;-67
2021/04/19 10:19:46;;;;;;;21.15;15.32;;;14.90;92.50;;;;;;5068947;28;20386;-67
2021/04/19 10:22:13;;;;;;;22.65;16.30;;;15.10;92.40;;;;;;5074460;28;20111;-67
2021/04/19 10:24:56;;;;;;;23.75;17.02;;;15.20;92.20;;;;;;5059336;28;20032;-67
2021/04/19 10:27:28;;;;;;;21.67;15.35;;;15.20;92.00;;;;;;5064740;28;20067;-67
2021/04/19 10:29:54;;;;;;;25.52;17.65;;;15.30;91.80;;;;;;5073245;28;20020;-67
2021/04/19 10:32:28;;;;;;;23.30;17.55;;;15.40;91.60;;;;;;5074142;28;20029;-67
2021/04/19 10:34:53;;;;;;;23.13;16.92;;;15.40;91.50;;;;;;5075062;28;20032;-66
2021/04/19 10:37:19;;;;;;;24.23;17.33;;;15.40;91.40;;;;;;5068690;28;20032;-67
2021/04/19 10:39:45;;;;;;;22.55;17.30;;;15.50;91.40;;;;;;5073426;28;20036;-67
2021/04/19 10:42:11;;;;;;;26.45;18.25;;;15.50;91.20;;;;;;5073944;28;20035;-67
2021/04/19 10:44:42;;;;;;;23.15;17.23;;;15.60;91.10;;;;;;5072387;28;20040;-67
2021/04/19 10:47:13;;;;;;;29.05;17.65;;;15.60;91.00;;;;;;5070665;28;20024;-68
2021/04/19 10:49:40;;;;;;;23.17;17.25;;;15.60;91.00;;;;;;5056054;28;20091;-68
2021/04/19 10:52:08;;;;;;;24.02;17.98;;;15.60;90.90;;;;;;5070050;28;20029;-67
2021/04/19 10:54:37;;;;;;;21.63;17.05;;;15.60;90.90;;;;;;5069593;28;20032;-68
2021/04/19 10:57:04;;;;;;;29.00;18.13;;;15.60;90.70;;;;;;5068818;28;20492;-69
2021/04/19 10:59:30;;;;;;;24.92;18.63;;;15.60;90.70;;;;;;5073929;28;20245;-69
2021/04/19 11:02:07;;;;;;;26.88;18.65;;;15.70;90.70;;;;;;5072032;28;20130;-69
2021/04/19 11:04:34;;;;;;;24.33;17.92;;;15.80;90.70;;;;;;5056246;28;20102;-70
2021/04/19 11:07:23;;;;;;;23.95;17.40;;;15.80;90.60;;;;;;5066943;28;20051;-68
2021/04/19 11:10:09;;;;;;;25.30;16.65;;;15.90;90.60;;;;;;5073421;28;20107;-68
2021/04/19 11:12:35;;;;;;;22.63;17.45;;;16.10;90.30;;;;;;5072660;28;20115;-70
2021/04/19 11:15:13;;;;;;;22.08;17.27;;;16.20;90.10;;;;;;5073686;28;20032;-70
2021/04/19 11:17:39;;;;;;;23.48;16.58;;;16.20;89.90;;;;;;5073303;28;20028;-68
2021/04/19 11:20:25;;;;;;;19.95;15.40;;;16.30;89.30;;;;;;5073874;28;20047;-70
2021/04/19 11:22:50;;;;;;;23.40;17.50;;;16.30;88.90;;;;;;5073985;28;20473;-70
2021/04/19 11:25:23;;;;;;;26.63;17.45;;;16.30;89.00;;;;;;5072023;28;20086;-70
2021/04/19 11:27:51;;;;;;;26.95;17.85;;;16.30;88.80;;;;;;5074229;28;20024;-70
2021/04/19 11:30:26;;;;;;;24.27;17.92;;;16.30;88.40;;;;;;5073533;28;20420;-69
2021/04/19 11:33:05;;;;;;;21.27;17.05;;;16.30;88.30;;;;;;5072850;28;20546;-69
2021/04/19 11:35:43;;;;;;;25.10;17.10;;;16.30;88.50;;;;;;5071472;28;20056;-69
2021/04/19 11:38:14;;;;;;;25.42;16.40;;;16.30;88.70;;;;;;5074043;28;20060;-69
2021/04/19 11:40:45;;;;;;;23.23;15.57;;;16.20;88.80;;;;;;5070566;28;20480;-69
2021/04/19 11:43:19;;;;;;;21.08;15.68;;;16.20;88.70;;;;;;5058536;28;20400;-69
2021/04/19 11:45:46;;;;;;;21.40;15.25;;;16.10;88.50;;;;;;5056926;28;20020;-69
2021/04/19 11:48:12;;;;;;;20.88;15.68;;;16.10;88.70;;;;;;5058053;28;20107;-69
2021/04/19 11:50:39;;;;;;;23.75;16.48;;;16.00;88.80;;;;;;5072383;28;20074;-69
2021/04/19 11:53:30;;;;;;;22.45;16.70;;;16.00;89.00;;;;;;5070845;28;20536;-69
2021/04/19 11:56:17;;;;;;;22.05;16.70;;;15.90;89.30;;;;;;5067528;28;20645;-70
2021/04/19 11:58:45;;;;;;;22.67;16.27;;;15.90;89.60;;;;;;5071734;28;20045;-69
2021/04/19 12:01:12;;;;;;;22.83;17.02;;;15.80;89.60;;;;;;5072116;28;20040;-69
2021/04/19 12:03:39;;;;;;;25.48;16.83;;;15.80;90.00;;;;;;5072611;28;20141;-69
2021/04/19 12:06:06;;;;;;;25.83;16.95;;;15.80;90.10;;;;;;5072864;28;20036;-71
2021/04/19 12:08:32;;;;;;;22.23;16.13;;;15.80;90.10;;;;;;5073247;28;20380;-71
2021/04/19 12:10:59;;;;;;;23.38;16.80;;;15.80;90.20;;;;;;5072298;28;20032;-72
2021/04/19 12:13:24;;;;;;;21.88;16.20;;;15.80;90.30;;;;;;5073188;28;20024;-72
2021/04/19 12:15:52;;;;;;;19.65;14.98;;;15.80;90.50;;;;;;5072559;28;20074;-72
2021/04/19 12:18:18;;;;;;;24.23;17.00;;;15.90;90.70;;;;;;5071604;28;20031;-73
2021/04/19 12:20:43;;;;;;;20.88;14.95;;;15.90;90.50;;;;;;5067517;28;20028;-72
2021/04/19 12:23:09;;;;;;;23.20;17.08;;;15.90;90.50;;;;;;5088240;28;20025;-71
2021/04/19 12:25:34;;;;;;;23.15;16.67;;;16.00;90.50;;;;;;5072172;28;20036;-72
2021/04/19 12:28:00;;;;;;;19.58;15.20;;;16.00;90.60;;;;;;5059001;28;20032;-71
2021/04/19 12:30:27;;;;;;;22.52;16.13;;;16.10;90.40;;;;;;5071993;28;20047;-71
2021/04/19 12:32:53;;;;;;;21.02;16.35;;;16.10;90.40;;;;;;5072332;28;20028;-70
2021/04/19 12:35:20;;;;;;;24.05;16.02;;;16.20;90.40;;;;;;5062964;28;20029;-71
2021/04/19 12:37:46;;;;;;;20.55;15.68;;;16.20;90.20;;;;;;5052826;28;20067;-72
2021/04/19 12:40:12;;;;;;;20.83;15.52;;;16.20;90.10;;;;;;5063300;28;20063;-72
2021/04/19 12:42:37;;;;;;;21.77;15.13;;;16.20;90.20;;;;;;5071436;28;20024;-72
2021/04/19 12:45:03;;;;;;;20.90;15.27;;;16.20;90.20;;;;;;5071962;28;20028;-72
2021/04/19 12:47:29;;;;;;;19.63;13.60;;;16.30;90.00;;;;;;5072051;28;20512;-72